Time;durP1;ratioP1;P1;durP2;ratioP2;P2;SDS_P1;SDS_P2;PMS_P1;PMS_P2;Temp;Humidity;BMP_temperature;BMP_pressure;BME280_temperature;BME280_humidity;BME280_pressure;Samples;Min_cycle;Max_cycle;Signal;HPM_P1;HPM_P2
2024/03/31 00:00:46;;;;;;;;;;;14.80;99.90;;;;;;2104961;28;19920;-84
2024/03/31 00:01:47;;;;;;;;;;;14.80;99.90;;;;;;2102143;28;19959;-85
2024/03/31 00:02:47;;;;;;;;;;;14.80;99.90;;;;;;2105724;28;19908;-84
2024/03/31 00:03:47;;;;;;;;;;;14.80;99.90;;;;;;2080817;28;20367;-83
2024/03/31 00:04:48;;;;;;;;;;;14.80;99.90;;;;;;2091234;28;19912;-82
2024/03/31 00:05:54;;;;;;;;;;;14.80;99.90;;;;;;2091440;28;20444;-84
2024/03/31 00:06:54;;;;;;;;;;;14.80;99.90;;;;;;2093834;28;19917;-83
2024/03/31 00:07:55;;;;;;;;;;;14.70;99.90;;;;;;2095846;28;20478;-85
2024/03/31 00:08:55;;;;;;;;;;;14.70;99.90;;;;;;2091090;28;19924;-85
2024/03/31 00:09:56;;;;;;;;;;;14.70;99.90;;;;;;2091523;28;19964;-85
2024/03/31 00:11:00;;;;;;;;;;;14.80;99.90;;;;;;2085729;28;20321;-84
2024/03/31 00:12:00;;;;;;;;;;;14.80;99.90;;;;;;2091741;28;19916;-84
2024/03/31 00:13:01;;;;;;;;;;;14.80;99.90;;;;;;2092179;28;19917;-83
2024/03/31 00:14:01;;;;;;;;;;;14.80;99.90;;;;;;2093956;28;19919;-83
2024/03/31 00:15:02;;;;;;;;;;;14.80;99.90;;;;;;2092390;28;19915;-85
2024/03/31 00:16:02;;;;;;;;;;;14.70;99.90;;;;;;2101033;28;19971;-84
2024/03/31 00:17:03;;;;;;;;;;;14.70;99.90;;;;;;2103120;28;19912;-84
2024/03/31 00:18:03;;;;;;;;;;;14.70;99.90;;;;;;2102674;28;19912;-84
2024/03/31 00:19:04;;;;;;;;;;;14.70;99.90;;;;;;2088698;28;19913;-84
2024/03/31 00:20:05;;;;;;;;;;;14.70;99.90;;;;;;2094682;28;20146;-85
2024/03/31 00:21:05;;;;;;;;;;;14.70;99.90;;;;;;2094164;28;19931;-83
2024/03/31 00:22:06;;;;;;;;;;;14.70;99.90;;;;;;2093588;28;20421;-84
2024/03/31 00:23:06;;;;;;;;;;;14.70;99.90;;;;;;2103616;28;19971;-84
2024/03/31 00:24:07;;;;;;;;;;;14.80;99.90;;;;;;2091792;28;20003;-83
2024/03/31 00:25:07;;;;;;;;;;;14.70;99.90;;;;;;2091916;28;19916;-82
2024/03/31 00:26:07;;;;;;;;;;;14.70;99.90;;;;;;2093738;28;19916;-83
2024/03/31 00:27:11;;;;;;;;;;;14.70;99.90;;;;;;2101686;28;19960;-83
2024/03/31 00:28:12;;;;;;;;;;;14.70;99.90;;;;;;2091480;28;19924;-82
2024/03/31 00:29:12;;;;;;;;;;;14.70;99.90;;;;;;2092030;28;20015;-83
2024/03/31 00:30:13;;;;;;;;;;;14.70;99.90;;;;;;2101409;28;19959;-81
2024/03/31 00:31:13;;;;;;;;;;;14.70;99.90;;;;;;2092975;28;19920;-83
2024/03/31 00:32:14;;;;;;;;;;;14.60;99.90;;;;;;2089592;28;19912;-84
2024/03/31 00:33:14;;;;;;;;;;;14.60;99.90;;;;;;2094185;28;20006;-84
2024/03/31 00:34:16;;;;;;;;;;;14.60;99.90;;;;;;2098643;28;20061;-83
2024/03/31 00:35:16;;;;;;;;;;;14.60;99.90;;;;;;2089022;28;19923;-84
2024/03/31 00:36:17;;;;;;;;;;;14.50;99.90;;;;;;2093592;28;19916;-74
2024/03/31 00:37:17;;;;;;;;;;;14.50;99.90;;;;;;2100881;28;20305;-75
2024/03/31 00:38:18;;;;;;;;;;;14.50;99.90;;;;;;2100713;28;20395;-76
2024/03/31 00:39:18;;;;;;;;;;;14.50;99.90;;;;;;2093879;28;19976;-84
2024/03/31 00:40:19;;;;;;;;;;;14.40;99.90;;;;;;2094706;28;19942;-82
2024/03/31 00:41:19;;;;;;;;;;;14.40;99.90;;;;;;2097911;28;19913;-83
2024/03/31 00:42:20;;;;;;;;;;;14.40;99.90;;;;;;2096119;28;19960;-83
2024/03/31 00:43:20;;;;;;;;;;;14.40;99.90;;;;;;2086121;28;19917;-83
2024/03/31 00:44:21;;;;;;;;;;;14.30;99.90;;;;;;2091290;28;19920;-86
2024/03/31 00:45:22;;;;;;;;;;;14.30;99.90;;;;;;2102444;28;20374;-83
2024/03/31 00:46:22;;;;;;;;;;;14.30;99.90;;;;;;2093940;28;19975;-84
2024/03/31 00:47:23;;;;;;;;;;;14.30;99.90;;;;;;2094620;28;20367;-85
2024/03/31 00:48:23;;;;;;;;;;;14.30;99.90;;;;;;2095071;28;20355;-86
2024/03/31 00:49:23;;;;;;;;;;;14.30;99.90;;;;;;2094041;28;19933;-85
2024/03/31 00:50:24;;;;;;;;;;;14.20;99.90;;;;;;2101719;28;20494;-84
2024/03/31 00:51:24;;;;;;;;;;;14.20;99.90;;;;;;2102380;28;19916;-83
2024/03/31 00:52:25;;;;;;;;;;;14.20;99.90;;;;;;2090184;28;19999;-84
2024/03/31 00:53:25;;;;;;;;;;;14.20;99.90;;;;;;2092844;28;19917;-84
2024/03/31 00:54:26;;;;;;;;;;;14.10;99.90;;;;;;2085188;28;19917;-83
2024/03/31 00:55:26;;;;;;;;;;;14.10;99.90;;;;;;2084596;28;19920;-84
2024/03/31 00:56:27;;;;;;;;;;;14.10;99.90;;;;;;2085404;28;20349;-84
2024/03/31 00:57:28;;;;;;;;;;;14.10;99.90;;;;;;2085143;28;20003;-84
2024/03/31 00:58:29;;;;;;;;;;;14.10;99.90;;;;;;2077764;28;20016;-83
2024/03/31 00:59:29;;;;;;;;;;;14.10;99.90;;;;;;2085333;28;19913;-84
2024/03/31 01:00:31;;;;;;;;;;;14.00;99.90;;;;;;2090885;28;19959;-85
2024/03/31 01:01:31;;;;;;;;;;;14.00;99.90;;;;;;2093957;28;19917;-84
2024/03/31 01:02:32;;;;;;;;;;;14.00;99.90;;;;;;2089698;28;20426;-85
2024/03/31 01:03:33;;;;;;;;;;;14.00;99.90;;;;;;2094253;28;20011;-84
2024/03/31 01:04:33;;;;;;;;;;;13.90;99.90;;;;;;2104204;28;19959;-84
2024/03/31 01:05:34;;;;;;;;;;;13.90;99.90;;;;;;2081093;28;19975;-84
2024/03/31 01:06:35;;;;;;;;;;;13.90;99.90;;;;;;2085355;28;19999;-83
2024/03/31 01:07:36;;;;;;;;;;;13.90;99.90;;;;;;2097897;28;20511;-85
2024/03/31 01:08:36;;;;;;;;;;;13.90;99.90;;;;;;2090089;28;19920;-84
2024/03/31 01:09:37;;;;;;;;;;;13.80;99.90;;;;;;2092868;28;19916;-82
2024/03/31 01:10:37;;;;;;;;;;;13.80;99.90;;;;;;2080907;28;19912;-83
2024/03/31 01:11:38;;;;;;;;;;;13.80;99.90;;;;;;2081462;28;19917;-85
2024/03/31 01:12:39;;;;;;;;;;;13.70;99.90;;;;;;2076910;28;20003;-85
2024/03/31 01:13:40;;;;;;;;;;;13.70;99.90;;;;;;2088926;28;19917;-85
2024/03/31 01:14:41;;;;;;;;;;;13.70;99.90;;;;;;2097013;28;19916;-84
2024/03/31 01:15:42;;;;;;;;;;;13.70;99.90;;;;;;2084503;28;19917;-83
2024/03/31 01:16:43;;;;;;;;;;;13.70;99.90;;;;;;2084904;28;19921;-85
2024/03/31 01:17:44;;;;;;;;;;;13.70;99.90;;;;;;2088204;28;19913;-83
2024/03/31 01:18:44;;;;;;;;;;;13.70;99.90;;;;;;2091812;28;20000;-84
2024/03/31 01:19:47;;;;;;;;;;;13.70;99.90;;;;;;2092186;28;19958;-84
2024/03/31 01:20:47;;;;;;;;;;;13.70;99.90;;;;;;2086317;28;20387;-85
2024/03/31 01:21:48;;;;;;;;;;;13.70;99.90;;;;;;2087589;28;19912;-83
2024/03/31 01:22:48;;;;;;;;;;;13.70;99.90;;;;;;2085608;28;19917;-85
2024/03/31 01:23:51;;;;;;;;;;;13.70;99.90;;;;;;2094605;28;19936;-84
2024/03/31 01:24:53;;;;;;;;;;;13.60;99.90;;;;;;2095214;28;20372;-84
2024/03/31 01:25:57;;;;;;;;;;;13.60;99.90;;;;;;2093635;28;19913;-83
2024/03/31 01:26:57;;;;;;;;;;;13.60;99.90;;;;;;2089745;28;19912;-84
2024/03/31 01:27:58;;;;;;;;;;;13.50;99.90;;;;;;2091515;28;20004;-85
2024/03/31 01:28:58;;;;;;;;;;;13.50;99.90;;;;;;2091561;28;19989;-84
2024/03/31 01:29:59;;;;;;;;;;;13.50;99.90;;;;;;2089548;28;19916;-82
2024/03/31 01:30:59;;;;;;;;;;;13.50;99.90;;;;;;2088300;28;19912;-83
2024/03/31 01:32:00;;;;;;;;;;;13.40;99.90;;;;;;2091890;28;20413;-83
2024/03/31 01:33:00;;;;;;;;;;;13.50;99.90;;;;;;2097938;28;20475;-83
2024/03/31 01:34:01;;;;;;;;;;;13.40;99.90;;;;;;2090838;28;19954;-82
2024/03/31 01:35:01;;;;;;;;;;;13.40;99.90;;;;;;2091909;28;19920;-82
2024/03/31 01:36:02;;;;;;;;;;;13.40;99.90;;;;;;2097556;28;19955;-83
2024/03/31 01:37:02;;;;;;;;;;;13.40;99.90;;;;;;2101947;28;20439;-83
2024/03/31 01:38:03;;;;;;;;;;;13.40;99.90;;;;;;2101812;28;19930;-83
2024/03/31 01:39:03;;;;;;;;;;;13.40;99.90;;;;;;2090908;28;19928;-82
2024/03/31 01:40:04;;;;;;;;;;;13.40;99.90;;;;;;2081353;28;19921;-83
2024/03/31 01:41:05;;;;;;;;;;;13.40;99.90;;;;;;2087336;28;19912;-83
2024/03/31 01:42:05;;;;;;;;;;;13.40;99.90;;;;;;2098337;28;19993;-84
2024/03/31 01:43:06;;;;;;;;;;;13.30;99.90;;;;;;2079358;28;19975;-84
2024/03/31 01:44:06;;;;;;;;;;;13.30;99.90;;;;;;2077899;28;20104;-84
2024/03/31 01:45:07;;;;;;;;;;;13.30;99.90;;;;;;2086352;28;19913;-84
2024/03/31 01:46:08;;;;;;;;;;;13.20;99.90;;;;;;2096632;28;19966;-83
2024/03/31 01:47:09;;;;;;;;;;;13.30;99.90;;;;;;2098885;28;19924;-83
2024/03/31 01:48:09;;;;;;;;;;;13.30;99.90;;;;;;2086284;28;19917;-83
2024/03/31 01:49:10;;;;;;;;;;;13.30;99.90;;;;;;2090252;28;19924;-84
2024/03/31 01:50:10;;;;;;;;;;;13.30;99.90;;;;;;2090870;28;19924;-84
2024/03/31 01:51:11;;;;;;;;;;;13.30;99.90;;;;;;2100716;28;19930;-84
2024/03/31 01:52:11;;;;;;;;;;;13.20;99.90;;;;;;2089409;28;19913;-85
2024/03/31 01:53:12;;;;;;;;;;;13.30;99.90;;;;;;2090124;28;19916;-85
2024/03/31 01:54:12;;;;;;;;;;;13.30;99.90;;;;;;2083862;28;20259;-84
2024/03/31 01:55:13;;;;;;;;;;;13.30;99.90;;;;;;2076785;28;20390;-84
2024/03/31 01:56:13;;;;;;;;;;;13.20;99.90;;;;;;2093413;28;20001;-81
2024/03/31 01:57:14;;;;;;;;;;;13.20;99.90;;;;;;2093477;28;20283;-84
2024/03/31 01:58:15;;;;;;;;;;;13.20;99.90;;;;;;2089451;28;19952;-84
2024/03/31 01:59:15;;;;;;;;;;;13.10;99.90;;;;;;2098563;28;20027;-84
2024/03/31 02:00:15;;;;;;;;;;;13.20;99.90;;;;;;2103039;28;19923;-84
2024/03/31 02:01:18;;;;;;;;;;;13.20;99.90;;;;;;2083019;28;19971;-86
2024/03/31 02:02:18;;;;;;;;;;;13.20;99.90;;;;;;2082005;28;20480;-85
2024/03/31 02:03:19;;;;;;;;;;;13.10;99.90;;;;;;2080712;28;20416;-85
2024/03/31 02:04:20;;;;;;;;;;;13.10;99.90;;;;;;2089670;28;19943;-85
2024/03/31 02:05:20;;;;;;;;;;;13.10;99.90;;;;;;2094732;28;21027;-85
2024/03/31 02:06:21;;;;;;;;;;;13.10;99.90;;;;;;2094741;28;19916;-85
2024/03/31 02:07:21;;;;;;;;;;;13.10;99.90;;;;;;2086334;28;19919;-84
2024/03/31 02:08:22;;;;;;;;;;;13.10;99.90;;;;;;2085543;28;20387;-85
2024/03/31 02:09:22;;;;;;;;;;;13.10;99.90;;;;;;2086431;28;20375;-83
2024/03/31 02:10:23;;;;;;;;;;;13.00;99.90;;;;;;2087687;28;19956;-86
2024/03/31 02:11:24;;;;;;;;;;;13.00;99.90;;;;;;2089219;28;20402;-86
2024/03/31 02:12:25;;;;;;;;;;;13.00;99.90;;;;;;2081048;28;20008;-84
2024/03/31 02:13:25;;;;;;;;;;;13.00;99.90;;;;;;2079631;28;20315;-84
2024/03/31 02:14:26;;;;;;;;;;;13.00;99.90;;;;;;2075235;28;19917;-85
2024/03/31 02:15:26;;;;;;;;;;;13.00;99.90;;;;;;2086540;28;20145;-85
2024/03/31 02:16:27;;;;;;;;;;;13.00;99.90;;;;;;2085950;28;19917;-85
2024/03/31 02:17:27;;;;;;;;;;;13.00;99.90;;;;;;2086640;28;20428;-85
2024/03/31 02:18:28;;;;;;;;;;;13.00;99.90;;;;;;2091625;28;19912;-86
2024/03/31 02:19:28;;;;;;;;;;;13.00;99.90;;;;;;2093688;28;20013;-85
2024/03/31 02:20:29;;;;;;;;;;;13.00;99.90;;;;;;2091224;28;20353;-85
2024/03/31 02:21:29;;;;;;;;;;;12.90;99.90;;;;;;2081547;28;19917;-82
2024/03/31 02:22:30;;;;;;;;;;;12.90;99.90;;;;;;2081718;28;20017;-84
2024/03/31 02:23:30;;;;;;;;;;;12.90;99.90;;;;;;2096806;28;20078;-83
2024/03/31 02:24:31;;;;;;;;;;;12.90;99.90;;;;;;2089977;28;19916;-83
2024/03/31 02:25:31;;;;;;;;;;;12.90;99.90;;;;;;2080569;28;20414;-83
2024/03/31 02:26:32;;;;;;;;;;;12.90;99.90;;;;;;2076632;28;19924;-82
2024/03/31 02:27:34;;;;;;;;;;;12.90;99.90;;;;;;2080141;28;21388;-85
2024/03/31 02:28:36;;;;;;;;;;;12.90;99.90;;;;;;2072834;28;19921;-84
2024/03/31 02:29:36;;;;;;;;;;;12.80;99.90;;;;;;2084829;28;19916;-83
2024/03/31 02:30:37;;;;;;;;;;;12.80;99.90;;;;;;2083216;28;20347;-77
2024/03/31 02:31:37;;;;;;;;;;;12.70;99.90;;;;;;2078783;28;19928;-78
2024/03/31 02:32:38;;;;;;;;;;;12.70;99.90;;;;;;2083117;28;19917;-77
2024/03/31 02:33:39;;;;;;;;;;;12.60;99.90;;;;;;2071223;28;19918;-77
2024/03/31 02:34:46;;;;;;;;;;;12.50;99.90;;;;;;2075830;28;19917;-78
2024/03/31 02:35:52;;;;;;;;;;;12.50;99.90;;;;;;2071464;28;19987;-77
2024/03/31 02:36:55;;;;;;;;;;;12.50;99.90;;;;;;2083114;28;19946;-77
2024/03/31 02:37:56;;;;;;;;;;;12.40;99.90;;;;;;2074954;28;19997;-77
2024/03/31 02:39:00;;;;;;;;;;;12.40;99.90;;;;;;2072269;28;19909;-76
2024/03/31 02:40:04;;;;;;;;;;;12.40;99.90;;;;;;2071392;28;19981;-86
2024/03/31 02:41:08;;;;;;;;;;;12.40;99.90;;;;;;2062614;28;20437;-83
2024/03/31 02:42:12;;;;;;;;;;;12.40;99.90;;;;;;2071382;28;19930;-87
2024/03/31 02:43:13;;;;;;;;;;;12.40;99.90;;;;;;2081355;28;20402;-83
2024/03/31 02:44:15;;;;;;;;;;;12.40;99.90;;;;;;2078335;28;20411;-85
2024/03/31 02:45:16;;;;;;;;;;;12.40;99.90;;;;;;2084975;28;19916;-84
2024/03/31 02:46:17;;;;;;;;;;;12.40;99.90;;;;;;2086837;28;20019;-84
2024/03/31 02:47:17;;;;;;;;;;;12.40;99.90;;;;;;2085987;28;19954;-84
2024/03/31 02:48:18;;;;;;;;;;;12.40;99.90;;;;;;2077715;28;19928;-85
2024/03/31 02:49:18;;;;;;;;;;;12.40;99.90;;;;;;2085985;28;20266;-82
2024/03/31 02:50:19;;;;;;;;;;;12.40;99.90;;;;;;2082259;28;19917;-84
2024/03/31 02:51:20;;;;;;;;;;;12.30;99.90;;;;;;2073898;28;20406;-83
2024/03/31 02:52:21;;;;;;;;;;;12.30;99.90;;;;;;2088427;28;19963;-85
2024/03/31 02:53:21;;;;;;;;;;;12.30;99.90;;;;;;2077375;28;19924;-85
2024/03/31 02:54:22;;;;;;;;;;;12.30;99.90;;;;;;2084869;28;19924;-84
2024/03/31 02:55:22;;;;;;;;;;;12.30;99.90;;;;;;2090675;28;20354;-84
2024/03/31 02:56:23;;;;;;;;;;;12.30;99.90;;;;;;2096018;28;19928;-85
2024/03/31 02:57:23;;;;;;;;;;;12.30;99.90;;;;;;2089617;28;19917;-84
2024/03/31 02:58:24;;;;;;;;;;;12.30;99.90;;;;;;2089521;28;19975;-84
2024/03/31 02:59:24;;;;;;;;;;;12.30;99.90;;;;;;2085661;28;19924;-84
2024/03/31 03:00:25;;;;;;;;;;;12.30;99.90;;;;;;2070666;28;19918;-84
2024/03/31 03:01:25;;;;;;;;;;;12.30;99.90;;;;;;2080086;28;19913;-85
2024/03/31 03:02:26;;;;;;;;;;;12.30;99.90;;;;;;2082577;28;19925;-85
2024/03/31 03:03:26;;;;;;;;;;;12.30;99.90;;;;;;2081590;28;19917;-86
2024/03/31 03:04:27;;;;;;;;;;;12.20;99.90;;;;;;2083959;28;19923;-84
2024/03/31 03:05:30;;;;;;;;;;;12.20;99.90;;;;;;2091569;28;20330;-86
2024/03/31 03:06:31;;;;;;;;;;;12.20;99.90;;;;;;2093533;28;19912;-85
2024/03/31 03:07:32;;;;;;;;;;;12.20;99.90;;;;;;2089458;28;20324;-84
2024/03/31 03:08:32;;;;;;;;;;;12.20;99.90;;;;;;2097714;28;20408;-85
2024/03/31 03:09:33;;;;;;;;;;;12.20;99.90;;;;;;2098310;28;19955;-85
2024/03/31 03:10:33;;;;;;;;;;;12.20;99.90;;;;;;2089146;28;19912;-81
2024/03/31 03:11:34;;;;;;;;;;;12.10;99.90;;;;;;2085268;28;19931;-84
2024/03/31 03:12:35;;;;;;;;;;;12.10;99.90;;;;;;2085941;28;19920;-86
2024/03/31 03:13:35;;;;;;;;;;;12.10;99.90;;;;;;2084818;28;20000;-85
2024/03/31 03:14:36;;;;;;;;;;;12.10;99.90;;;;;;2094030;28;19912;-85
2024/03/31 03:15:36;;;;;;;;;;;12.10;99.90;;;;;;2084735;28;19986;-86
2024/03/31 03:16:37;;;;;;;;;;;12.10;99.90;;;;;;2085516;28;20660;-84
2024/03/31 03:17:37;;;;;;;;;;;12.10;99.90;;;;;;2089511;28;19923;-84
2024/03/31 03:18:38;;;;;;;;;;;12.10;99.90;;;;;;2090038;28;19912;-84
2024/03/31 03:19:38;;;;;;;;;;;12.00;99.90;;;;;;2080780;28;20128;-82
2024/03/31 03:20:39;;;;;;;;;;;12.10;99.90;;;;;;2087135;28;19978;-84
2024/03/31 03:21:39;;;;;;;;;;;12.10;99.90;;;;;;2086737;28;19913;-84
2024/03/31 03:22:40;;;;;;;;;;;12.10;99.90;;;;;;2084466;28;19984;-85
2024/03/31 03:23:40;;;;;;;;;;;12.10;99.90;;;;;;2090566;28;19917;-84
2024/03/31 03:24:41;;;;;;;;;;;12.10;99.90;;;;;;2103171;28;20077;-84
2024/03/31 03:25:42;;;;;;;;;;;12.10;99.90;;;;;;2098445;28;19948;-85
2024/03/31 03:26:44;;;;;;;;;;;12.00;99.90;;;;;;2095221;28;19913;-84
2024/03/31 03:27:45;;;;;;;;;;;12.10;99.90;;;;;;2101623;28;19973;-84
2024/03/31 03:28:46;;;;;;;;;;;12.00;99.90;;;;;;2096081;28;19925;-83
2024/03/31 03:29:47;;;;;;;;;;;12.00;99.90;;;;;;2086473;28;19977;-83
2024/03/31 03:30:47;;;;;;;;;;;12.00;99.90;;;;;;2089506;28;19920;-75
2024/03/31 03:31:48;;;;;;;;;;;12.00;99.90;;;;;;2085214;28;19924;-73
2024/03/31 03:32:52;;;;;;;;;;;12.00;99.90;;;;;;2082281;28;19963;-76
2024/03/31 03:33:53;;;;;;;;;;;12.00;99.90;;;;;;2082999;28;19987;-72
2024/03/31 03:34:53;;;;;;;;;;;12.00;99.90;;;;;;2063926;28;20346;-74
2024/03/31 03:35:54;;;;;;;;;;;12.00;99.90;;;;;;2080352;28;19916;-73
2024/03/31 03:36:54;;;;;;;;;;;11.90;99.90;;;;;;2098066;28;19912;-73
2024/03/31 03:37:55;;;;;;;;;;;12.00;99.90;;;;;;2090640;28;19919;-73
2024/03/31 03:38:55;;;;;;;;;;;11.90;99.90;;;;;;2092899;28;19913;-73
2024/03/31 03:40:01;;;;;;;;;;;11.90;99.90;;;;;;2096441;28;20401;-73
2024/03/31 03:41:03;;;;;;;;;;;11.90;99.90;;;;;;2081636;28;20271;-73
2024/03/31 03:42:03;;;;;;;;;;;11.90;99.90;;;;;;2092758;28;19924;-73
2024/03/31 03:43:05;;;;;;;;;;;12.00;99.90;;;;;;2092371;28;19989;-73
2024/03/31 03:44:06;;;;;;;;;;;11.90;99.90;;;;;;2076373;28;19915;-73
2024/03/31 03:45:07;;;;;;;;;;;12.00;99.90;;;;;;2092884;28;20096;-73
2024/03/31 03:46:08;;;;;;;;;;;11.90;99.90;;;;;;2092332;28;19963;-71
2024/03/31 03:47:11;;;;;;;;;;;12.00;99.90;;;;;;2085005;28;19913;-72
2024/03/31 03:48:11;;;;;;;;;;;12.00;99.90;;;;;;2079955;28;19988;-72
2024/03/31 03:49:12;;;;;;;;;;;12.00;99.90;;;;;;2093127;28;19986;-73
2024/03/31 03:50:13;;;;;;;;;;;12.00;99.90;;;;;;2087701;28;20376;-73
2024/03/31 03:51:14;;;;;;;;;;;12.00;99.90;;;;;;2060438;28;19918;-75
2024/03/31 03:52:14;;;;;;;;;;;12.00;99.90;;;;;;2088004;28;19994;-74
2024/03/31 03:53:15;;;;;;;;;;;12.00;99.90;;;;;;2092447;28;19948;-74
2024/03/31 03:54:15;;;;;;;;;;;11.90;99.90;;;;;;2075820;28;19913;-74
2024/03/31 03:55:16;;;;;;;;;;;11.90;99.90;;;;;;2079691;28;20379;-73
2024/03/31 03:56:17;;;;;;;;;;;11.90;99.90;;;;;;2078569;28;19916;-74
2024/03/31 03:57:18;;;;;;;;;;;11.90;99.90;;;;;;2087399;28;20011;-74
2024/03/31 03:58:19;;;;;;;;;;;11.80;99.90;;;;;;2089730;28;19920;-74
2024/03/31 03:59:19;;;;;;;;;;;11.80;99.90;;;;;;2080263;28;19913;-74
2024/03/31 04:00:20;;;;;;;;;;;11.90;99.90;;;;;;2082798;28;20399;-74
2024/03/31 04:01:20;;;;;;;;;;;11.90;99.90;;;;;;2081846;28;19913;-74
2024/03/31 04:02:21;;;;;;;;;;;11.80;99.90;;;;;;2077707;28;19917;-74
2024/03/31 04:03:21;;;;;;;;;;;11.80;99.90;;;;;;2082558;28;19923;-74
2024/03/31 04:04:22;;;;;;;;;;;11.80;99.90;;;;;;2090312;28;20000;-73
2024/03/31 04:05:22;;;;;;;;;;;11.70;99.90;;;;;;2091901;28;19927;-74
2024/03/31 04:06:23;;;;;;;;;;;11.70;99.90;;;;;;2086643;28;19962;-74
2024/03/31 04:07:23;;;;;;;;;;;11.70;99.90;;;;;;2105319;28;19915;-74
2024/03/31 04:08:24;;;;;;;;;;;11.70;99.90;;;;;;2105742;28;19922;-74
2024/03/31 04:09:24;;;;;;;;;;;11.70;99.90;;;;;;2097722;28;19966;-74
2024/03/31 04:10:25;;;;;;;;;;;11.70;99.90;;;;;;2099298;28;20318;-74
2024/03/31 04:11:26;;;;;;;;;;;11.70;99.90;;;;;;2100811;28;20417;-74
2024/03/31 04:12:27;;;;;;;;;;;11.70;99.90;;;;;;2092181;28;19984;-72
2024/03/31 04:13:27;;;;;;;;;;;11.80;99.90;;;;;;2082204;28;19917;-73
2024/03/31 04:14:28;;;;;;;;;;;11.80;99.90;;;;;;2088725;28;19963;-74
2024/03/31 04:15:28;;;;;;;;;;;11.80;99.90;;;;;;2090605;28;20340;-74
2024/03/31 04:16:29;;;;;;;;;;;11.80;99.90;;;;;;2082410;28;20365;-74
2024/03/31 04:17:30;;;;;;;;;;;11.80;99.90;;;;;;2080375;28;19920;-74
2024/03/31 04:18:30;;;;;;;;;;;11.80;99.90;;;;;;2097190;28;20131;-73
2024/03/31 04:19:31;;;;;;;;;;;11.80;99.90;;;;;;2100779;28;19912;-73
2024/03/31 04:20:31;;;;;;;;;;;11.80;99.90;;;;;;2085059;28;19917;-74
2024/03/31 04:21:32;;;;;;;;;;;11.80;99.90;;;;;;2090267;28;20287;-73
2024/03/31 04:22:32;;;;;;;;;;;11.80;99.90;;;;;;2089158;28;20386;-74
2024/03/31 04:23:33;;;;;;;;;;;11.80;99.90;;;;;;2100248;28;19955;-74
2024/03/31 04:24:34;;;;;;;;;;;11.80;99.90;;;;;;2091019;28;19927;-74
2024/03/31 04:25:34;;;;;;;;;;;11.70;99.90;;;;;;2089858;28;20302;-73
2024/03/31 04:26:35;;;;;;;;;;;11.70;99.90;;;;;;2076043;28;19917;-74
2024/03/31 04:27:36;;;;;;;;;;;11.70;99.90;;;;;;2084633;28;19920;-73
2024/03/31 04:28:36;;;;;;;;;;;11.70;99.90;;;;;;2087951;28;19963;-74
2024/03/31 04:29:37;;;;;;;;;;;11.70;99.90;;;;;;2088467;28;19921;-73
2024/03/31 04:30:43;;;;;;;;;;;11.70;99.90;;;;;;2094520;28;19924;-74
2024/03/31 04:31:54;;;;;;;;;;;11.70;99.90;;;;;;2092474;28;20368;-74
2024/03/31 04:32:56;;;;;;;;;;;11.70;99.90;;;;;;2091820;28;20009;-74
2024/03/31 04:33:57;;;;;;;;;;;11.60;99.90;;;;;;2079894;28;19928;-74
2024/03/31 04:34:58;;;;;;;;;;;11.60;99.90;;;;;;2091342;28;20011;-74
2024/03/31 04:36:00;;;;;;;;;;;11.70;99.90;;;;;;2098691;28;20153;-73
2024/03/31 04:37:01;;;;;;;;;;;11.80;99.90;;;;;;2088089;28;19984;-73
2024/03/31 04:38:02;;;;;;;;;;;11.80;99.90;;;;;;2092406;28;19912;-74
2024/03/31 04:39:04;;;;;;;;;;;11.80;99.90;;;;;;2092379;28;20013;-73
2024/03/31 04:40:05;;;;;;;;;;;11.80;99.90;;;;;;2092198;28;19939;-74
2024/03/31 04:41:05;;;;;;;;;;;11.90;99.90;;;;;;2089919;28;19918;-73
2024/03/31 04:42:06;;;;;;;;;;;11.90;99.90;;;;;;2083985;28;19913;-74
2024/03/31 04:43:07;;;;;;;;;;;11.90;99.90;;;;;;2086437;28;19920;-73
2024/03/31 04:44:11;;;;;;;;;;;11.90;99.90;;;;;;2095055;28;19946;-73
2024/03/31 04:45:12;;;;;;;;;;;11.90;99.90;;;;;;2101623;28;19916;-73
2024/03/31 04:46:13;;;;;;;;;;;11.80;99.90;;;;;;2088380;28;19926;-73
2024/03/31 04:47:13;;;;;;;;;;;11.80;99.90;;;;;;2083079;28;20251;-73
2024/03/31 04:48:14;;;;;;;;;;;11.80;99.90;;;;;;2088438;28;20331;-73
2024/03/31 04:49:15;;;;;;;;;;;11.80;99.90;;;;;;2096228;28;19916;-73
2024/03/31 04:50:16;;;;;;;;;;;11.70;99.90;;;;;;2091362;28;19943;-73
2024/03/31 04:51:17;;;;;;;;;;;11.80;99.90;;;;;;2076680;28;19917;-74
2024/03/31 04:52:17;;;;;;;;;;;11.70;99.90;;;;;;2087909;28;19920;-74
2024/03/31 04:53:18;;;;;;;;;;;11.70;99.90;;;;;;2088150;28;20091;-74
2024/03/31 04:54:19;;;;;;;;;;;11.60;99.90;;;;;;2092013;28;20019;-74
2024/03/31 04:55:20;;;;;;;;;;;11.60;99.90;;;;;;2092572;28;20386;-73
2024/03/31 04:56:20;;;;;;;;;;;11.60;99.90;;;;;;2075822;28;20395;-73
2024/03/31 04:57:24;;;;;;;;;;;11.60;99.90;;;;;;2076059;28;19944;-74
2024/03/31 04:58:24;;;;;;;;;;;11.60;99.90;;;;;;2088162;28;19917;-72
2024/03/31 04:59:25;;;;;;;;;;;11.60;99.90;;;;;;2083926;28;20314;-73
2024/03/31 05:00:25;;;;;;;;;;;11.60;99.90;;;;;;2083879;28;20221;-73
2024/03/31 05:01:26;;;;;;;;;;;11.60;99.90;;;;;;2075202;28;19913;-74
2024/03/31 05:02:27;;;;;;;;;;;11.60;99.90;;;;;;2083908;28;19927;-74
2024/03/31 05:03:28;;;;;;;;;;;11.60;99.90;;;;;;2100362;28;20360;-73
2024/03/31 05:04:28;;;;;;;;;;;11.60;99.90;;;;;;2088886;28;20414;-73
2024/03/31 05:05:29;;;;;;;;;;;11.60;99.90;;;;;;2088578;28;20072;-74
2024/03/31 05:06:29;;;;;;;;;;;11.60;99.90;;;;;;2089253;28;20219;-73
2024/03/31 05:07:30;;;;;;;;;;;11.60;99.90;;;;;;2080480;28;19966;-73
2024/03/31 05:08:30;;;;;;;;;;;11.60;99.90;;;;;;2083735;28;20046;-73
2024/03/31 05:09:31;;;;;;;;;;;11.60;99.90;;;;;;2083983;28;19913;-73
2024/03/31 05:10:32;;;;;;;;;;;11.70;99.90;;;;;;2083626;28;19920;-74
2024/03/31 05:11:33;;;;;;;;;;;11.70;99.90;;;;;;2083566;28;20445;-73
2024/03/31 05:12:35;;;;;;;;;;;11.70;99.90;;;;;;2072531;28;20387;-73
2024/03/31 05:13:35;;;;;;;;;;;11.70;99.90;;;;;;2075487;28;19939;-73
2024/03/31 05:14:41;;;;;;;;;;;11.80;99.90;;;;;;2081902;28;19920;-73
2024/03/31 05:15:42;;;;;;;;;;;11.80;99.90;;;;;;2081673;28;20282;-73
2024/03/31 05:16:42;;;;;;;;;;;11.70;99.90;;;;;;2083731;28;20000;-73
2024/03/31 05:17:43;;;;;;;;;;;11.70;99.90;;;;;;2083845;28;19923;-73
2024/03/31 05:18:43;;;;;;;;;;;11.80;99.90;;;;;;2069090;28;19971;-72
2024/03/31 05:19:52;;;;;;;;;;;11.70;99.90;;;;;;2067820;28;20439;-73
2024/03/31 05:20:54;;;;;;;;;;;11.70;99.90;;;;;;2074050;28;19923;-73
2024/03/31 05:21:55;;;;;;;;;;;11.70;99.90;;;;;;2091624;28;20440;-73
2024/03/31 05:22:55;;;;;;;;;;;11.70;99.90;;;;;;2075804;28;20019;-74
2024/03/31 05:23:56;;;;;;;;;;;11.70;99.90;;;;;;2075630;28;20359;-74
2024/03/31 05:25:04;;;;;;;;;;;11.70;99.90;;;;;;2082242;28;19968;-73
2024/03/31 05:26:09;;;;;;;;;;;11.70;99.90;;;;;;2083634;28;20179;-74
2024/03/31 05:27:11;;;;;;;;;;;11.70;99.90;;;;;;2083694;28;19913;-72
2024/03/31 05:28:11;;;;;;;;;;;11.70;99.90;;;;;;2078074;28;20394;-73
2024/03/31 05:29:12;;;;;;;;;;;11.60;99.90;;;;;;2082202;28;19925;-72
2024/03/31 05:30:14;;;;;;;;;;;11.70;99.90;;;;;;2085739;28;19916;-72
2024/03/31 05:31:15;;;;;;;;;;;11.80;99.90;;;;;;2079864;28;20406;-73
2024/03/31 05:32:54;;;;;;;;;;;11.80;99.90;;;;;;2070536;28;20408;-74
2024/03/31 05:33:59;;;;;;;;;;;11.80;99.90;;;;;;2085728;28;19924;-73
2024/03/31 05:35:00;;;;;;;;;;;11.80;99.90;;;;;;2079794;28;19925;-72
2024/03/31 05:36:00;;;;;;;;;;;11.80;99.90;;;;;;2083288;28;19924;-73
2024/03/31 05:37:01;;;;;;;;;;;11.90;99.90;;;;;;2080190;28;19968;-72
2024/03/31 05:38:02;;;;;;;;;;;11.90;99.90;;;;;;2079646;28;19916;-73
2024/03/31 05:39:02;;;;;;;;;;;11.90;99.90;;;;;;2080045;28;20064;-73
2024/03/31 05:40:03;;;;;;;;;;;11.90;99.90;;;;;;2080217;28;19917;-74
2024/03/31 05:41:04;;;;;;;;;;;11.90;99.90;;;;;;2075420;28;20103;-74
2024/03/31 05:42:05;;;;;;;;;;;11.90;99.90;;;;;;2075432;28;20432;-74
2024/03/31 05:43:05;;;;;;;;;;;12.00;99.90;;;;;;2082871;28;19913;-73
2024/03/31 05:44:06;;;;;;;;;;;11.90;99.90;;;;;;2080077;28;19928;-73
2024/03/31 05:45:09;;;;;;;;;;;11.90;99.90;;;;;;2070859;28;19941;-73
2024/03/31 05:46:09;;;;;;;;;;;11.90;99.90;;;;;;2078962;28;20396;-73
2024/03/31 05:47:10;;;;;;;;;;;11.90;99.90;;;;;;2083968;28;19913;-74
2024/03/31 05:48:11;;;;;;;;;;;11.90;99.90;;;;;;2083846;28;20018;-73
2024/03/31 05:49:20;;;;;;;;;;;11.90;99.90;;;;;;2080970;28;19944;-74
2024/03/31 05:50:21;;;;;;;;;;;11.80;99.90;;;;;;2075190;28;19920;-73
2024/03/31 05:51:21;;;;;;;;;;;11.80;99.90;;;;;;2077278;28;19939;-74
2024/03/31 05:52:24;;;;;;;;;;;11.80;99.90;;;;;;2078976;28;19921;-73
2024/03/31 05:53:24;;;;;;;;;;;11.90;99.90;;;;;;2075317;28;20008;-75
2024/03/31 05:54:26;;;;;;;;;;;11.90;99.90;;;;;;2077304;28;19987;-75
2024/03/31 05:55:28;;;;;;;;;;;11.90;99.90;;;;;;2083321;28;19917;-74